createdAt,value
2022-11-16T00:01:36.333Z,12.15
2022-11-16T00:04:04.660Z,13.68
2022-11-16T00:06:31.997Z,11.73
2022-11-16T00:09:20.363Z,13.57
2022-11-16T00:11:51.449Z,13.57
2022-11-16T00:14:20.285Z,20.45
2022-11-16T00:16:48.203Z,33.28
2022-11-16T00:19:16.103Z,35.22
2022-11-16T00:21:43.472Z,36.17
2022-11-16T00:24:15.726Z,38.35
2022-11-16T00:26:43.264Z,25.83
2022-11-16T00:29:21.193Z,45.85
2022-11-16T00:31:49.053Z,71.18
2022-11-16T00:34:16.641Z,42.22
2022-11-16T00:36:44.300Z,74.43
2022-11-16T00:39:16.017Z,29.17
2022-11-16T00:41:45.756Z,16.02
2022-11-16T00:44:13.414Z,132.73
2022-11-16T00:46:41.326Z,153.05
2022-11-16T00:49:09.781Z,71.70
2022-11-16T00:51:37.992Z,27.42
2022-11-16T00:54:07.464Z,18.95
2022-11-16T00:56:36.974Z,13.50
2022-11-16T00:59:05.615Z,12.45
2022-11-16T01:01:33.387Z,11.80
2022-11-16T01:04:00.824Z,12.27
2022-11-16T01:06:28.098Z,12.02
2022-11-16T01:08:55.486Z,12.20
2022-11-16T01:11:43.103Z,11.23
2022-11-16T01:14:11.621Z,13.02
2022-11-16T01:16:39.142Z,12.55
2022-11-16T01:19:06.519Z,11.98
2022-11-16T01:21:34.578Z,13.07
2022-11-16T01:24:01.942Z,12.35
2022-11-16T01:26:29.321Z,11.93
2022-11-16T01:28:58.722Z,11.90
2022-11-16T01:31:28.513Z,12.55
2022-11-16T01:33:55.839Z,11.68
2022-11-16T01:36:26.766Z,13.00
2022-11-16T01:38:57.269Z,12.10
2022-11-16T01:41:29.068Z,13.27
2022-11-16T01:44:05.168Z,13.25
2022-11-16T01:46:44.780Z,12.25
2022-11-16T01:49:19.619Z,13.02
2022-11-16T01:51:53.063Z,13.70
2022-11-16T01:54:20.645Z,13.02
2022-11-16T01:56:56.388Z,13.30
2022-11-16T01:59:59.068Z,12.70
2022-11-16T02:02:29.938Z,12.38
2022-11-16T02:04:58.904Z,12.50
2022-11-16T02:08:20.663Z,13.23
2022-11-16T02:11:37.453Z,12.93
2022-11-16T02:14:26.708Z,12.85
2022-11-16T02:17:05.012Z,13.85
2022-11-16T02:20:09.806Z,13.13
2022-11-16T02:22:57.926Z,13.32
2022-11-16T02:25:37.695Z,12.98
2022-11-16T02:28:29.533Z,13.02
2022-11-16T02:31:00.254Z,13.60
2022-11-16T02:33:34.832Z,13.32
2022-11-16T02:36:07.730Z,13.50
2022-11-16T02:38:48.011Z,13.27
2022-11-16T02:41:20.021Z,13.38
2022-11-16T02:46:32.134Z,14.30
2022-11-16T02:49:03.947Z,14.57
2022-11-16T02:51:34.595Z,14.63
2022-11-16T02:54:13.192Z,14.05
2022-11-16T02:56:53.440Z,15.40
2022-11-16T02:59:28.914Z,14.77
2022-11-16T03:02:08.476Z,15.05
2022-11-16T03:04:42.777Z,15.13
2022-11-16T03:07:12.893Z,15.25
2022-11-16T03:09:41.979Z,14.90
2022-11-16T03:12:15.379Z,16.00
2022-11-16T03:14:57.384Z,16.38
2022-11-16T03:17:45.985Z,16.10
2022-11-16T03:20:22.513Z,15.32
2022-11-16T03:22:56.568Z,16.85
2022-11-16T03:25:29.966Z,15.45
2022-11-16T03:28:38.876Z,15.65
2022-11-16T03:31:13.740Z,15.88
2022-11-16T03:33:48.178Z,16.55
2022-11-16T03:36:22.405Z,16.60
2022-11-16T03:38:52.916Z,15.85
2022-11-16T03:41:24.432Z,16.27
2022-11-16T03:43:55.115Z,16.00
2022-11-16T03:46:22.912Z,14.38
2022-11-16T03:49:00.606Z,15.60
2022-11-16T03:51:31.952Z,16.23
2022-11-16T03:53:59.277Z,16.25
2022-11-16T03:56:26.913Z,16.05
2022-11-16T03:58:54.573Z,15.65
2022-11-16T04:01:22.008Z,17.02
2022-11-16T04:03:50.167Z,15.65
2022-11-16T04:06:37.893Z,15.95
2022-11-16T04:09:28.786Z,16.27
2022-11-16T04:12:15.248Z,15.43
2022-11-16T04:15:01.786Z,16.67
2022-11-16T04:17:50.321Z,16.15
2022-11-16T04:20:36.533Z,16.77
2022-11-16T04:23:31.554Z,16.60
2022-11-16T04:25:59.608Z,16.95
2022-11-16T04:28:31.261Z,14.10
2022-11-16T04:31:22.839Z,15.20
2022-11-16T04:34:16.172Z,14.65
2022-11-16T04:37:07.613Z,15.95
2022-11-16T04:39:35.560Z,16.13
2022-11-16T04:42:14.833Z,15.40
2022-11-16T04:45:02.376Z,21.35
2022-11-16T04:50:03.970Z,15.80
2022-11-16T04:52:31.941Z,15.68
2022-11-16T04:54:59.630Z,15.63
2022-11-16T04:57:28.247Z,14.82
2022-11-16T04:59:56.149Z,15.18
2022-11-16T05:02:23.654Z,15.82
2022-11-16T05:04:54.953Z,16.08
2022-11-16T05:07:23.435Z,15.30
2022-11-16T05:09:53.540Z,15.65
2022-11-16T05:12:26.561Z,16.42
2022-11-16T05:14:58.058Z,16.08
2022-11-16T05:17:28.333Z,15.32
2022-11-16T05:20:16.333Z,15.25
2022-11-16T05:22:58.817Z,16.20
2022-11-16T05:25:35.400Z,16.58
2022-11-16T05:28:05.979Z,16.38
2022-11-16T05:30:36.953Z,17.25
2022-11-16T05:33:04.827Z,15.68
2022-11-16T05:35:35.442Z,16.55
2022-11-16T05:38:02.788Z,16.77
2022-11-16T05:40:33.025Z,16.02
2022-11-16T05:43:01.440Z,16.10
2022-11-16T05:45:32.547Z,16.33
2022-11-16T05:48:01.368Z,17.85
2022-11-16T05:50:28.829Z,19.17
2022-11-16T05:53:14.308Z,16.13
2022-11-16T05:55:42.139Z,16.45
2022-11-16T05:58:09.688Z,17.20
2022-11-16T06:00:37.495Z,16.17
2022-11-16T06:03:06.038Z,16.52
2022-11-16T06:05:40.490Z,15.77
2022-11-16T06:08:11.266Z,17.35
2022-11-16T06:10:39.021Z,15.55
2022-11-16T06:13:06.666Z,16.25
2022-11-16T06:15:38.292Z,17.13
2022-11-16T06:18:07.407Z,17.13
2022-11-16T06:20:37.472Z,16.48
2022-11-16T06:23:05.247Z,15.85
2022-11-16T06:25:32.778Z,17.17
2022-11-16T06:28:04.022Z,17.42
2022-11-16T06:30:34.414Z,16.40
2022-11-16T06:33:03.123Z,17.30
2022-11-16T06:35:30.798Z,16.95
2022-11-16T06:37:58.561Z,16.55
2022-11-16T06:40:26.384Z,17.92
2022-11-16T06:42:54.228Z,17.65
2022-11-16T06:45:21.612Z,16.40
2022-11-16T06:47:53.343Z,16.42
2022-11-16T06:50:20.887Z,16.20
2022-11-16T06:52:50.195Z,17.10
2022-11-16T06:55:18.676Z,17.63
2022-11-16T06:57:47.425Z,15.50
2022-11-16T07:00:15.438Z,16.98
2022-11-16T07:02:42.727Z,15.77
2022-11-16T07:05:13.771Z,17.20
2022-11-16T07:07:41.987Z,16.50
2022-11-16T07:10:13.127Z,16.40
2022-11-16T07:12:42.019Z,17.17
2022-11-16T07:15:09.796Z,17.30
2022-11-16T07:17:40.385Z,17.52
2022-11-16T07:20:08.090Z,16.65
2022-11-16T07:22:35.561Z,17.55
2022-11-16T07:25:03.755Z,17.40
2022-11-16T07:27:31.157Z,17.85
2022-11-16T07:29:59.006Z,16.73
2022-11-16T07:32:45.023Z,17.20
2022-11-16T07:35:25.615Z,15.82
2022-11-16T07:37:52.928Z,15.88
2022-11-16T07:40:20.748Z,16.60
2022-11-16T07:42:49.580Z,15.75
2022-11-16T07:45:32.372Z,16.85
2022-11-16T07:48:06.051Z,16.45
2022-11-16T07:50:52.119Z,16.05
2022-11-16T07:53:20.820Z,16.90
2022-11-16T07:55:54.754Z,16.65
2022-11-16T07:58:24.115Z,18.63
2022-11-16T08:00:51.720Z,19.50
2022-11-16T08:03:23.414Z,17.58
2022-11-16T08:06:00.393Z,17.23
2022-11-16T08:08:28.224Z,15.73
2022-11-16T08:11:03.282Z,15.90
2022-11-16T08:13:34.342Z,15.57
2022-11-16T08:16:09.551Z,16.42
2022-11-16T08:18:37.900Z,16.60
2022-11-16T08:21:07.109Z,16.88
2022-11-16T08:23:35.173Z,16.83
2022-11-16T08:26:06.461Z,16.40
2022-11-16T08:28:34.633Z,16.98
2022-11-16T08:31:12.052Z,16.98
2022-11-16T08:33:40.373Z,15.57
2022-11-16T08:36:14.050Z,18.40
2022-11-16T08:38:43.383Z,20.55
2022-11-16T08:41:11.354Z,16.70
2022-11-16T08:43:40.521Z,20.20
2022-11-16T08:46:10.327Z,15.18
2022-11-16T08:48:40.374Z,14.88
2022-11-16T08:51:17.625Z,16.20
2022-11-16T08:53:54.948Z,14.35
2022-11-16T08:56:22.477Z,14.90
2022-11-16T08:58:57.850Z,15.30
2022-11-16T09:01:28.696Z,14.57
2022-11-16T09:03:56.387Z,16.67
2022-11-16T09:06:24.840Z,15.23
2022-11-16T09:08:52.775Z,14.23
2022-11-16T09:11:22.564Z,15.18
2022-11-16T09:13:51.981Z,14.20
2022-11-16T09:16:21.133Z,14.02
2022-11-16T09:18:50.203Z,14.55
2022-11-16T09:21:26.205Z,14.15
2022-11-16T09:23:54.539Z,14.52
2022-11-16T09:26:23.348Z,15.57
2022-11-16T09:28:56.020Z,15.60
2022-11-16T09:31:23.928Z,13.95
2022-11-16T09:33:51.573Z,14.60
2022-11-16T09:36:20.446Z,17.90
2022-11-16T09:39:25.740Z,16.00
2022-11-16T09:41:53.332Z,13.90
2022-11-16T09:44:32.521Z,13.52
2022-11-16T09:47:01.980Z,16.30
2022-11-16T09:49:34.493Z,15.40
2022-11-16T09:52:06.404Z,14.80
2022-11-16T09:54:38.092Z,15.30
2022-11-16T09:57:12.585Z,14.45
2022-11-16T09:59:54.533Z,14.55
2022-11-16T10:02:32.423Z,14.15
2022-11-16T10:05:22.903Z,15.10
2022-11-16T10:07:59.672Z,15.88
2022-11-16T10:11:07.505Z,15.15
2022-11-16T10:13:52.704Z,17.85
2022-11-16T10:16:23.068Z,16.08
2022-11-16T10:19:13.906Z,15.35
2022-11-16T10:22:05.602Z,15.00
2022-11-16T10:24:39.086Z,15.57
2022-11-16T10:27:22.125Z,15.15
2022-11-16T10:30:00.825Z,14.43
2022-11-16T10:32:35.513Z,14.63
2022-11-16T10:35:12.081Z,14.10
2022-11-16T10:37:50.530Z,13.40
2022-11-16T10:40:29.490Z,18.63
2022-11-16T10:43:15.604Z,18.02
2022-11-16T10:45:58.058Z,12.88
2022-11-16T10:48:42.991Z,13.65
2022-11-16T10:51:10.794Z,13.43
2022-11-16T10:53:40.498Z,14.15
2022-11-16T10:56:17.445Z,13.40
2022-11-16T10:58:58.709Z,14.02
2022-11-16T11:01:57.638Z,13.60
2022-11-16T11:04:27.609Z,13.77
2022-11-16T11:07:14.585Z,13.32
2022-11-16T11:09:43.361Z,12.63
2022-11-16T11:12:34.741Z,13.55
2022-11-16T11:15:11.137Z,13.38
2022-11-16T11:17:49.834Z,13.95
2022-11-16T11:20:17.213Z,13.20
2022-11-16T11:23:00.515Z,13.55
2022-11-16T11:25:37.290Z,14.00
2022-11-16T11:28:06.792Z,14.43
2022-11-16T11:30:35.085Z,13.63
2022-11-16T11:33:11.387Z,13.40
2022-11-16T11:35:38.709Z,13.60
2022-11-16T11:38:08.296Z,14.18
2022-11-16T11:40:36.334Z,14.68
2022-11-16T11:43:06.005Z,15.07
2022-11-16T11:45:42.780Z,14.75
2022-11-16T11:48:33.953Z,12.95
2022-11-16T11:51:19.771Z,13.05
2022-11-16T11:53:55.383Z,12.70
2022-11-16T11:56:23.413Z,11.88
2022-11-16T11:58:52.032Z,12.23
2022-11-16T12:01:44.622Z,11.23
2022-11-16T12:04:29.013Z,11.77
2022-11-16T12:07:07.460Z,11.02
2022-11-16T12:09:58.113Z,11.35
2022-11-16T12:12:45.068Z,12.73
2022-11-16T12:15:47.504Z,11.85
2022-11-16T12:20:53.577Z,11.45
2022-11-16T12:23:58.218Z,11.38
2022-11-16T12:26:51.563Z,10.90
2022-11-16T12:29:39.095Z,11.43
2022-11-16T12:32:28.124Z,10.77
2022-11-16T12:35:24.618Z,10.38
2022-11-16T12:38:00.658Z,11.13
2022-11-16T12:40:52.702Z,10.88
2022-11-16T12:43:35.995Z,10.80
2022-11-16T12:46:32.235Z,11.50
2022-11-16T12:49:05.320Z,11.10
2022-11-16T12:51:56.084Z,10.73
2022-11-16T12:55:04.228Z,10.73
2022-11-16T12:57:53.942Z,10.38
2022-11-16T13:00:21.212Z,10.60
2022-11-16T13:03:20.258Z,11.25
2022-11-16T13:06:02.266Z,10.82
2022-11-16T13:08:43.814Z,10.18
2022-11-16T13:11:22.878Z,10.32
2022-11-16T13:13:55.970Z,9.77
2022-11-16T13:16:24.895Z,9.13
2022-11-16T13:18:54.281Z,9.57
2022-11-16T13:21:27.375Z,9.05
2022-11-16T13:24:06.544Z,8.98
2022-11-16T13:26:52.940Z,9.40
2022-11-16T13:29:49.567Z,9.05
2022-11-16T13:32:40.405Z,9.45
2022-11-16T13:35:16.598Z,9.00
2022-11-16T13:37:48.750Z,9.68
2022-11-16T13:40:33.245Z,10.23
2022-11-16T13:43:09.493Z,10.93
2022-11-16T13:45:49.601Z,9.63
2022-11-16T13:48:22.351Z,10.40
2022-11-16T13:50:56.120Z,10.10
2022-11-16T13:58:50.070Z,8.63
2022-11-16T14:01:18.770Z,8.52
2022-11-16T14:03:51.744Z,9.50
2022-11-16T14:06:25.267Z,9.65
2022-11-16T14:08:57.034Z,8.85
2022-11-16T14:11:28.894Z,9.27
2022-11-16T14:16:23.467Z,8.40
2022-11-16T14:18:56.157Z,7.60
2022-11-16T14:21:41.849Z,6.95
2022-11-16T14:24:21.202Z,7.28
2022-11-16T14:27:09.667Z,6.93
2022-11-16T14:29:58.269Z,6.90
2022-11-16T14:32:30.888Z,6.93
2022-11-16T14:35:00.644Z,6.57
2022-11-16T14:37:32.558Z,6.28
2022-11-16T14:40:15.035Z,6.10
2022-11-16T14:43:21.548Z,6.80
2022-11-16T14:46:06.016Z,6.63
2022-11-16T14:48:35.152Z,7.57
2022-11-16T14:51:10.476Z,7.95
2022-11-16T14:53:41.788Z,8.75
2022-11-16T14:56:17.431Z,8.88
2022-11-16T14:59:01.372Z,9.10
2022-11-16T15:01:31.722Z,6.68
2022-11-16T15:04:09.564Z,5.97
2022-11-16T15:06:45.757Z,5.35
2022-11-16T15:09:22.490Z,4.63
2022-11-16T15:12:09.812Z,4.60
2022-11-16T15:14:58.748Z,4.22
2022-11-16T15:17:31.924Z,4.13
2022-11-16T15:20:03.998Z,3.83
2022-11-16T15:22:39.371Z,4.22
2022-11-16T15:25:37.035Z,4.75
2022-11-16T15:28:20.448Z,4.47
2022-11-16T15:31:12.806Z,4.60
2022-11-16T15:33:43.668Z,4.15
2022-11-16T15:36:23.101Z,4.53
2022-11-16T15:38:53.800Z,4.10
2022-11-16T15:41:22.104Z,3.83
2022-11-16T15:44:13.263Z,4.28
2022-11-16T15:46:41.547Z,4.18
2022-11-16T15:49:33.621Z,4.72
2022-11-16T15:52:01.859Z,3.90
2022-11-16T15:54:51.723Z,4.70
2022-11-16T15:57:21.258Z,5.18
2022-11-16T15:59:51.104Z,3.88
2022-11-16T16:02:23.910Z,4.28
2022-11-16T16:04:51.287Z,4.85
2022-11-16T16:07:42.272Z,4.60
2022-11-16T16:10:18.672Z,3.55
2022-11-16T16:12:57.599Z,4.43
2022-11-16T16:15:36.906Z,3.70
2022-11-16T16:18:11.362Z,4.00
2022-11-16T16:20:38.679Z,3.80
2022-11-16T16:23:12.837Z,4.63
2022-11-16T16:25:40.203Z,4.47
2022-11-16T16:28:11.686Z,5.32
2022-11-16T16:30:39.520Z,5.55
2022-11-16T16:33:06.819Z,5.25
2022-11-16T16:35:34.140Z,5.22
2022-11-16T16:38:01.811Z,7.50
2022-11-16T16:40:29.673Z,6.70
2022-11-16T16:42:58.100Z,6.28
2022-11-16T16:45:37.272Z,6.07
2022-11-16T16:48:05.912Z,6.35
2022-11-16T16:50:33.157Z,7.45
2022-11-16T16:53:01.155Z,12.63
2022-11-16T16:55:31.667Z,8.75
2022-11-16T16:58:02.969Z,8.80
2022-11-16T17:00:30.769Z,8.25
2022-11-16T17:02:58.700Z,10.18
2022-11-16T17:05:29.024Z,9.82
2022-11-16T17:07:56.426Z,9.93
2022-11-16T17:10:24.463Z,10.00
2022-11-16T17:12:56.040Z,11.63
2022-11-16T17:15:23.916Z,11.80
2022-11-16T17:17:51.389Z,12.30
2022-11-16T17:20:18.649Z,12.05
2022-11-16T17:22:46.313Z,12.20
2022-11-16T17:25:14.981Z,13.23
2022-11-16T17:27:42.481Z,16.50
2022-11-16T17:30:10.391Z,16.08
2022-11-16T17:32:37.763Z,14.55
2022-11-16T17:35:05.345Z,14.52
2022-11-16T17:37:32.832Z,14.02
2022-11-16T17:40:00.222Z,12.80
2022-11-16T17:42:27.610Z,12.90
2022-11-16T17:44:55.270Z,13.05
2022-11-16T17:47:22.546Z,13.85
2022-11-16T17:49:49.915Z,15.68
2022-11-16T17:52:17.318Z,15.27
2022-11-16T17:54:44.753Z,14.90
2022-11-16T17:57:12.008Z,14.20
2022-11-16T17:59:39.271Z,13.40
2022-11-16T18:02:07.026Z,13.27
2022-11-16T18:04:34.279Z,13.68
2022-11-16T18:07:01.740Z,13.52
2022-11-16T18:09:29.272Z,13.38
2022-11-16T18:11:56.645Z,14.63
2022-11-16T18:14:24.062Z,13.77
2022-11-16T18:16:51.488Z,13.77
2022-11-16T18:19:19.980Z,14.13
2022-11-16T18:21:48.846Z,13.73
2022-11-16T18:24:16.340Z,15.00
2022-11-16T18:26:44.901Z,15.77
2022-11-16T18:29:15.544Z,19.17
2022-11-16T18:31:43.196Z,18.30
2022-11-16T18:34:14.185Z,18.17
2022-11-16T18:36:41.625Z,17.03
2022-11-16T18:39:08.976Z,21.92
2022-11-16T18:41:36.606Z,26.13
2022-11-16T18:44:04.121Z,18.70
2022-11-16T18:46:33.201Z,17.60
2022-11-16T18:49:01.101Z,16.30
2022-11-16T18:51:29.424Z,19.05
2022-11-16T18:53:57.883Z,17.30
2022-11-16T18:56:25.706Z,17.42
2022-11-16T18:58:53.662Z,17.60
2022-11-16T19:01:24.029Z,18.13
2022-11-16T19:03:55.843Z,17.50
2022-11-16T19:06:24.221Z,16.40
2022-11-16T19:08:59.353Z,17.65
2022-11-16T19:11:28.655Z,15.70
2022-11-16T19:14:00.814Z,16.60
2022-11-16T19:16:28.590Z,14.88
2022-11-16T19:18:56.042Z,13.82
2022-11-16T19:21:23.963Z,13.13
2022-11-16T19:23:56.034Z,14.95
2022-11-16T19:28:53.389Z,13.90
2022-11-16T19:31:26.743Z,14.95
2022-11-16T19:34:05.361Z,14.27
2022-11-16T19:36:38.566Z,13.50
2022-11-16T19:39:12.431Z,13.40
2022-11-16T19:41:44.274Z,13.27
2022-11-16T19:44:16.652Z,12.25
2022-11-16T19:46:55.083Z,13.55
2022-11-16T19:49:25.317Z,15.00
2022-11-16T19:51:56.782Z,13.55
2022-11-16T19:54:27.026Z,12.88
2022-11-16T19:57:05.403Z,12.65
2022-11-16T19:59:38.822Z,12.27
2022-11-16T20:02:09.758Z,13.15
2022-11-16T20:04:37.913Z,13.27
2022-11-16T20:07:10.995Z,13.18
2022-11-16T20:09:50.527Z,12.88
2022-11-16T20:12:23.990Z,13.55
2022-11-16T20:14:54.384Z,13.60
2022-11-16T20:17:23.312Z,12.95
2022-11-16T20:19:54.200Z,13.88
2022-11-16T20:24:57.361Z,13.25
2022-11-16T20:30:02.721Z,13.25
2022-11-16T20:32:36.099Z,13.88
2022-11-16T20:35:06.077Z,13.30
2022-11-16T20:37:38.464Z,13.55
2022-11-16T20:40:09.569Z,17.52
2022-11-16T20:42:41.504Z,16.55
2022-11-16T20:45:12.124Z,17.92
2022-11-16T20:47:54.978Z,14.48
2022-11-16T20:50:28.617Z,14.20
2022-11-16T20:52:59.639Z,17.13
2022-11-16T20:55:33.920Z,17.80
2022-11-16T20:58:09.575Z,17.30
2022-11-16T21:00:38.872Z,15.38
2022-11-16T21:03:09.672Z,15.05
2022-11-16T21:05:44.141Z,15.95
2022-11-16T21:08:14.920Z,16.40
2022-11-16T21:10:50.269Z,14.32
2022-11-16T21:13:41.248Z,13.77
2022-11-16T21:16:14.068Z,13.55
2022-11-16T21:18:45.438Z,14.02
2022-11-16T21:21:15.537Z,14.13
2022-11-16T21:23:53.244Z,14.80
2022-11-16T21:26:26.939Z,19.38
2022-11-16T21:29:02.600Z,18.77
2022-11-16T21:31:35.715Z,20.15
2022-11-16T21:34:09.358Z,20.05
2022-11-16T21:36:38.933Z,17.02
2022-11-16T21:39:13.242Z,15.15
2022-11-16T21:41:47.046Z,13.63
2022-11-16T21:44:18.850Z,14.57
2022-11-16T21:46:50.576Z,13.98
2022-11-16T21:49:23.366Z,14.65
2022-11-16T21:51:55.149Z,14.30
2022-11-16T21:54:46.518Z,14.20
2022-11-16T21:57:23.892Z,13.60
2022-11-16T22:00:04.691Z,12.90
2022-11-16T22:02:39.663Z,13.50
2022-11-16T22:05:30.095Z,13.48
2022-11-16T22:08:11.147Z,14.00
2022-11-16T22:10:46.985Z,13.27
2022-11-16T22:13:23.066Z,18.67
2022-11-16T22:15:52.890Z,18.75
2022-11-16T22:18:26.863Z,18.13
2022-11-16T22:21:07.113Z,14.57
2022-11-16T22:23:37.867Z,14.63
2022-11-16T22:26:10.752Z,13.32
2022-11-16T22:31:14.999Z,15.85
2022-11-16T22:33:44.876Z,14.77
2022-11-16T22:36:14.060Z,13.82
2022-11-16T22:38:43.236Z,13.50
2022-11-16T22:41:13.357Z,13.38
2022-11-16T22:43:42.467Z,15.95
2022-11-16T22:46:11.411Z,15.48
2022-11-16T22:48:41.218Z,14.32
2022-11-16T22:51:30.310Z,14.27
2022-11-16T22:54:02.376Z,14.63
2022-11-16T22:56:34.142Z,13.93
2022-11-16T22:59:07.102Z,14.63
2022-11-16T23:01:38.024Z,14.15
2022-11-16T23:04:08.075Z,13.48
2022-11-16T23:06:38.753Z,16.02
2022-11-16T23:09:07.707Z,16.58
2022-11-16T23:11:56.938Z,17.52
2022-11-16T23:14:44.100Z,15.02
2022-11-16T23:17:12.623Z,13.80
2022-11-16T23:19:59.340Z,13.88
2022-11-16T23:22:49.028Z,14.32
2022-11-16T23:25:36.736Z,13.70
2022-11-16T23:28:09.074Z,13.35
2022-11-16T23:30:38.555Z,13.15
2022-11-16T23:33:08.093Z,13.32
2022-11-16T23:35:39.728Z,13.32
2022-11-16T23:38:11.037Z,13.10
2022-11-16T23:40:40.402Z,13.02
2022-11-16T23:43:29.571Z,14.20
2022-11-16T23:45:57.530Z,13.57
2022-11-16T23:48:25.332Z,13.70
2022-11-16T23:50:53.237Z,13.45
2022-11-16T23:53:20.720Z,14.18
2022-11-16T23:55:48.233Z,14.50
2022-11-16T23:58:16.152Z,14.23
